createdAt,value
2022-08-17T00:00:43.547Z,6.75
2022-08-17T00:03:38.343Z,7.00
2022-08-17T00:06:29.919Z,7.72
2022-08-17T00:09:20.037Z,7.30
2022-08-17T00:12:43.339Z,7.65
2022-08-17T00:15:22.482Z,7.00
2022-08-17T00:19:01.363Z,7.50
2022-08-17T00:21:25.265Z,6.93
2022-08-17T00:24:16.257Z,8.10
2022-08-17T00:27:06.115Z,7.70
2022-08-17T00:29:56.060Z,8.77
2022-08-17T00:33:14.162Z,7.70
2022-08-17T00:35:59.150Z,7.38
2022-08-17T00:38:50.348Z,8.43
2022-08-17T00:41:42.403Z,7.55
2022-08-17T00:44:33.090Z,7.10
2022-08-17T00:47:23.111Z,8.13
2022-08-17T00:50:15.714Z,7.45
2022-08-17T00:53:05.890Z,7.38
2022-08-17T00:55:59.651Z,7.30
2022-08-17T00:58:52.268Z,7.57
2022-08-17T01:01:42.857Z,8.25
2022-08-17T01:04:33.608Z,8.40
2022-08-17T01:07:25.114Z,8.18
2022-08-17T01:10:58.995Z,8.63
2022-08-17T01:13:35.519Z,8.38
2022-08-17T01:16:31.593Z,7.60
2022-08-17T01:19:26.762Z,7.82
2022-08-17T01:22:22.061Z,7.90
2022-08-17T01:25:13.680Z,8.18
2022-08-17T01:28:04.374Z,8.02
2022-08-17T01:30:57.437Z,7.80
2022-08-17T01:33:49.340Z,8.43
2022-08-17T01:36:42.309Z,7.40
2022-08-17T01:39:42.197Z,8.73
2022-08-17T01:42:46.441Z,8.88
2022-08-17T01:45:43.222Z,8.95
2022-08-17T01:48:35.623Z,10.55
2022-08-17T01:51:32.431Z,8.68
2022-08-17T01:54:24.844Z,8.43
2022-08-17T01:57:15.270Z,8.30
2022-08-17T02:00:10.619Z,8.35
2022-08-17T02:03:01.080Z,8.52
2022-08-17T02:05:53.188Z,9.10
2022-08-17T02:09:03.152Z,9.65
2022-08-17T02:11:56.393Z,9.38
2022-08-17T02:14:46.648Z,8.93
2022-08-17T02:17:36.742Z,9.05
2022-08-17T02:20:41.591Z,8.93
2022-08-17T02:23:36.255Z,9.68
2022-08-17T02:26:26.760Z,9.02
2022-08-17T02:29:16.684Z,8.65
2022-08-17T02:32:06.797Z,8.68
2022-08-17T02:34:57.944Z,9.50
2022-08-17T02:37:49.391Z,9.13
2022-08-17T02:40:45.541Z,9.13
2022-08-17T02:43:35.932Z,8.57
2022-08-17T02:46:26.286Z,8.68
2022-08-17T02:49:16.343Z,9.93
2022-08-17T02:52:07.755Z,9.20
2022-08-17T02:54:57.988Z,8.98
2022-08-17T02:57:50.265Z,9.65
2022-08-17T03:00:43.459Z,8.82
2022-08-17T03:03:35.103Z,9.38
2022-08-17T03:06:25.568Z,9.07
2022-08-17T03:09:16.828Z,8.50
2022-08-17T03:12:10.018Z,9.05
2022-08-17T03:15:05.636Z,9.45
2022-08-17T03:17:56.697Z,9.38
2022-08-17T03:20:47.307Z,9.40
2022-08-17T03:23:42.179Z,9.38
2022-08-17T03:26:32.298Z,9.25
2022-08-17T03:29:22.732Z,8.98
2022-08-17T03:32:14.609Z,9.90
2022-08-17T03:35:05.574Z,8.73
2022-08-17T03:38:00.375Z,10.85
2022-08-17T03:40:57.892Z,10.60
2022-08-17T03:43:49.122Z,10.00
2022-08-17T03:46:58.173Z,10.50
2022-08-17T03:50:07.167Z,10.93
2022-08-17T03:53:24.597Z,10.38
2022-08-17T03:56:33.283Z,10.65
2022-08-17T03:59:23.571Z,9.98
2022-08-17T04:02:21.451Z,10.13
2022-08-17T04:05:11.758Z,9.93
2022-08-17T04:08:01.870Z,10.18
2022-08-17T04:10:56.580Z,10.52
2022-08-17T04:13:46.810Z,10.10
2022-08-17T04:16:38.644Z,10.80
2022-08-17T04:19:29.113Z,9.95
2022-08-17T04:22:32.765Z,9.30
2022-08-17T04:25:24.280Z,9.23
2022-08-17T04:28:16.544Z,9.30
2022-08-17T04:31:06.716Z,9.35
2022-08-17T04:33:57.091Z,9.65
2022-08-17T04:36:50.235Z,9.18
2022-08-17T04:40:03.840Z,9.73
2022-08-17T04:43:10.569Z,10.07
2022-08-17T04:46:04.063Z,9.43
2022-08-17T04:48:57.194Z,10.23
2022-08-17T04:51:54.471Z,10.15
2022-08-17T04:54:46.401Z,10.18
2022-08-17T04:57:39.465Z,10.50
2022-08-17T05:00:31.918Z,10.75
2022-08-17T05:03:22.275Z,10.15
2022-08-17T05:06:12.562Z,10.98
2022-08-17T05:09:03.621Z,10.70
2022-08-17T05:11:53.912Z,10.73
2022-08-17T05:14:45.558Z,10.25
2022-08-17T05:17:35.735Z,11.00
2022-08-17T05:20:25.968Z,11.48
2022-08-17T05:23:18.614Z,11.13
2022-08-17T05:26:09.513Z,11.70
2022-08-17T05:29:09.798Z,11.68
2022-08-17T05:32:39.509Z,11.45
2022-08-17T05:35:22.039Z,11.27
2022-08-17T05:38:13.199Z,12.60
2022-08-17T05:41:06.821Z,12.98
2022-08-17T05:43:57.092Z,12.43
2022-08-17T05:46:53.191Z,12.32
2022-08-17T05:49:43.711Z,12.27
2022-08-17T05:52:49.660Z,13.02
2022-08-17T05:56:10.919Z,13.50
2022-08-17T05:59:48.563Z,13.20
2022-08-17T06:02:54.234Z,13.15
2022-08-17T06:05:58.358Z,13.93
2022-08-17T06:09:01.324Z,13.13
2022-08-17T06:12:00.096Z,12.55
2022-08-17T06:15:16.777Z,12.68
2022-08-17T06:18:10.387Z,12.65
2022-08-17T06:21:06.038Z,13.07
2022-08-17T06:24:20.620Z,13.25
2022-08-17T06:27:22.930Z,18.60
2022-08-17T06:30:20.256Z,16.83
2022-08-17T06:33:19.124Z,15.98
2022-08-17T06:36:39.442Z,14.90
2022-08-17T06:39:58.261Z,13.93
2022-08-17T06:43:14.107Z,11.40
2022-08-17T06:46:21.826Z,11.15
2022-08-17T06:49:21.845Z,11.20
2022-08-17T06:52:42.197Z,10.25
2022-08-17T06:55:38.133Z,9.60
2022-08-17T06:58:31.549Z,9.82
2022-08-17T07:01:26.884Z,9.75
2022-08-17T07:04:21.358Z,9.13
2022-08-17T07:07:31.394Z,9.05
2022-08-17T07:10:25.080Z,8.27
2022-08-17T07:13:41.209Z,8.52
2022-08-17T07:16:50.769Z,7.20
2022-08-17T07:19:45.338Z,6.78
2022-08-17T07:23:13.272Z,7.00
2022-08-17T07:26:05.470Z,6.90
2022-08-17T07:28:58.310Z,7.50
2022-08-17T07:31:48.660Z,6.93
2022-08-17T07:35:00.188Z,7.72
2022-08-17T07:38:07.765Z,6.80
2022-08-17T07:41:20.375Z,6.85
2022-08-17T07:44:13.481Z,7.40
2022-08-17T07:47:23.754Z,7.23
2022-08-17T07:50:29.841Z,6.72
2022-08-17T07:53:25.729Z,7.15
2022-08-17T07:56:37.931Z,7.72
2022-08-17T07:59:34.085Z,7.10
2022-08-17T08:02:34.187Z,6.85
2022-08-17T08:05:30.733Z,5.57
2022-08-17T08:08:43.582Z,4.50
2022-08-17T08:11:38.263Z,4.85
2022-08-17T08:14:34.015Z,5.25
2022-08-17T08:20:47.666Z,4.85
2022-08-17T08:23:57.432Z,5.03
2022-08-17T08:26:55.347Z,5.18
2022-08-17T08:30:08.712Z,5.10
2022-08-17T08:33:34.117Z,4.97
2022-08-17T08:37:14.376Z,3.88
2022-08-17T08:40:08.828Z,4.80
2022-08-17T08:43:24.905Z,4.55
2022-08-17T08:46:44.842Z,4.22
2022-08-17T08:50:08.719Z,3.75
2022-08-17T08:53:16.449Z,3.63
2022-08-17T08:57:04.962Z,3.50
2022-08-17T09:00:20.638Z,3.80
2022-08-17T09:03:52.200Z,3.25
2022-08-17T09:06:57.249Z,3.30
2022-08-17T09:10:17.085Z,3.33
2022-08-17T09:13:35.220Z,3.60
2022-08-17T09:16:33.088Z,3.85
2022-08-17T09:19:31.940Z,3.88
2022-08-17T09:22:39.183Z,4.28
2022-08-17T09:25:33.372Z,3.90
2022-08-17T09:28:34.730Z,4.07
2022-08-17T09:31:48.735Z,4.32
2022-08-17T09:34:56.624Z,4.57
2022-08-17T09:38:05.836Z,4.53
2022-08-17T09:41:21.687Z,4.35
2022-08-17T09:44:35.848Z,4.80
2022-08-17T09:47:46.445Z,5.35
2022-08-17T09:50:55.350Z,4.18
2022-08-17T09:54:05.277Z,4.90
2022-08-17T09:57:37.910Z,4.18
2022-08-17T10:00:35.746Z,4.00
2022-08-17T10:03:59.731Z,4.22
2022-08-17T10:07:02.466Z,3.88
2022-08-17T10:10:07.031Z,4.43
2022-08-17T10:13:10.696Z,4.47
2022-08-17T10:16:23.140Z,4.55
2022-08-17T10:19:24.602Z,4.93
2022-08-17T10:22:49.869Z,5.03
2022-08-17T10:26:04.743Z,5.15
2022-08-17T10:29:12.403Z,4.45
2022-08-17T10:32:09.191Z,4.60
2022-08-17T10:35:25.868Z,4.60
2022-08-17T10:38:38.603Z,4.65
2022-08-17T10:41:40.704Z,4.78
2022-08-17T10:45:06.690Z,5.05
2022-08-17T10:48:06.259Z,4.00
2022-08-17T10:50:59.235Z,4.32
2022-08-17T10:53:50.261Z,5.10
2022-08-17T10:56:50.929Z,4.50
2022-08-17T10:59:50.747Z,4.38
2022-08-17T11:02:49.344Z,4.65
2022-08-17T11:05:52.313Z,4.03
2022-08-17T11:09:08.807Z,4.38
2022-08-17T11:12:06.544Z,4.60
2022-08-17T11:15:18.116Z,4.18
2022-08-17T11:18:29.161Z,4.28
2022-08-17T11:21:45.441Z,4.50
2022-08-17T11:24:47.962Z,4.43
2022-08-17T11:27:38.337Z,4.22
2022-08-17T11:30:57.780Z,4.75
2022-08-17T11:33:59.268Z,4.68
2022-08-17T11:37:17.312Z,4.82
2022-08-17T11:40:26.508Z,4.60
2022-08-17T11:43:42.967Z,4.88
2022-08-17T11:47:09.238Z,4.25
2022-08-17T11:50:36.950Z,4.93
2022-08-17T11:53:50.517Z,4.90
2022-08-17T11:56:42.709Z,5.13
2022-08-17T11:59:32.806Z,6.15
2022-08-17T12:02:29.867Z,5.60
2022-08-17T12:05:29.187Z,5.05
2022-08-17T12:08:21.851Z,5.07
2022-08-17T12:12:11.010Z,5.38
2022-08-17T12:15:07.994Z,5.18
2022-08-17T12:17:55.510Z,5.28
2022-08-17T12:20:54.587Z,5.50
2022-08-17T12:23:57.092Z,6.15
2022-08-17T12:26:57.148Z,6.13
2022-08-17T12:29:47.550Z,6.50
2022-08-17T12:32:40.512Z,6.15
2022-08-17T12:35:35.242Z,6.30
2022-08-17T12:38:32.023Z,6.03
2022-08-17T12:41:57.379Z,5.72
2022-08-17T12:44:50.696Z,5.60
2022-08-17T12:47:41.208Z,6.65
2022-08-17T12:50:32.137Z,6.55
2022-08-17T12:53:27.184Z,6.35
2022-08-17T12:56:17.123Z,5.88
2022-08-17T12:59:07.272Z,5.63
2022-08-17T13:02:00.726Z,6.15
2022-08-17T13:04:50.823Z,5.53
2022-08-17T13:07:46.647Z,5.78
2022-08-17T13:10:37.997Z,5.40
2022-08-17T13:13:34.902Z,5.40
2022-08-17T13:16:30.690Z,4.75
2022-08-17T13:19:29.772Z,4.70
2022-08-17T13:22:32.410Z,4.90
2022-08-17T13:25:23.841Z,4.57
2022-08-17T13:28:35.710Z,4.60
2022-08-17T13:31:27.932Z,4.90
2022-08-17T13:34:23.938Z,4.30
2022-08-17T13:37:26.187Z,4.18
2022-08-17T13:40:20.117Z,4.93
2022-08-17T13:43:11.957Z,4.93
2022-08-17T13:46:20.828Z,5.13
2022-08-17T13:49:12.055Z,4.35
2022-08-17T13:52:02.402Z,4.45
2022-08-17T13:54:52.615Z,4.55
2022-08-17T13:57:49.655Z,4.40
2022-08-17T14:00:56.230Z,3.85
2022-08-17T14:03:46.133Z,3.95
2022-08-17T14:06:54.093Z,4.38
2022-08-17T14:09:47.146Z,4.10
2022-08-17T14:12:39.563Z,3.95
2022-08-17T14:15:54.928Z,4.18
2022-08-17T14:18:56.850Z,4.35
2022-08-17T14:21:48.205Z,3.85
2022-08-17T14:24:44.991Z,3.70
2022-08-17T14:27:41.864Z,3.90
2022-08-17T14:30:43.566Z,3.60
2022-08-17T14:33:34.965Z,4.07
2022-08-17T14:36:25.736Z,3.85
2022-08-17T14:39:16.886Z,3.80
2022-08-17T14:42:07.073Z,4.18
2022-08-17T14:44:58.757Z,3.95
2022-08-17T14:47:48.931Z,3.90
2022-08-17T14:50:41.757Z,3.72
2022-08-17T14:53:31.948Z,4.00
2022-08-17T14:56:22.210Z,3.50
2022-08-17T14:59:12.704Z,3.85
2022-08-17T15:02:03.619Z,3.70
2022-08-17T15:04:58.486Z,3.95
2022-08-17T15:07:48.966Z,3.60
2022-08-17T15:10:39.327Z,3.90
2022-08-17T15:13:29.534Z,3.80
2022-08-17T15:16:20.423Z,3.90
2022-08-17T15:19:10.813Z,3.65
2022-08-17T15:22:01.402Z,3.95
2022-08-17T15:24:51.668Z,3.83
2022-08-17T15:27:42.560Z,3.80
2022-08-17T15:30:32.958Z,4.07
2022-08-17T15:33:29.318Z,3.58
2022-08-17T15:36:19.696Z,3.88
2022-08-17T15:39:09.573Z,3.90
2022-08-17T15:42:02.759Z,3.80
2022-08-17T15:44:55.147Z,3.60
2022-08-17T15:47:46.522Z,3.83
2022-08-17T15:50:37.417Z,3.78
2022-08-17T15:53:27.552Z,3.60
2022-08-17T15:56:18.741Z,3.70
2022-08-17T15:59:09.666Z,3.75
2022-08-17T16:03:16.010Z,3.38
2022-08-17T16:05:17.583Z,3.70
2022-08-17T16:08:11.055Z,3.60
2022-08-17T16:11:03.440Z,3.65
2022-08-17T16:13:55.071Z,3.85
2022-08-17T16:16:46.259Z,3.65
2022-08-17T16:19:37.965Z,4.20
2022-08-17T16:22:36.031Z,3.90
2022-08-17T16:25:52.288Z,4.00
2022-08-17T16:28:41.049Z,4.28
2022-08-17T16:31:32.719Z,4.20
2022-08-17T16:34:23.776Z,4.05
2022-08-17T16:37:14.020Z,3.95
2022-08-17T16:40:07.091Z,4.22
2022-08-17T16:42:57.847Z,3.90
2022-08-17T16:45:51.970Z,4.25
2022-08-17T16:48:44.414Z,4.20
2022-08-17T16:51:35.931Z,4.15
2022-08-17T16:54:26.334Z,4.00
2022-08-17T16:57:17.519Z,4.28
2022-08-17T17:00:12.531Z,4.20
2022-08-17T17:03:19.101Z,4.15
2022-08-17T17:06:45.826Z,4.47
2022-08-17T17:09:37.962Z,4.80
2022-08-17T17:13:00.933Z,4.15
2022-08-17T17:15:54.937Z,4.25
2022-08-17T17:19:34.475Z,4.43
2022-08-17T17:22:47.874Z,4.25
2022-08-17T17:25:53.702Z,4.43
2022-08-17T17:29:04.532Z,5.18
2022-08-17T17:32:20.740Z,4.97
2022-08-17T17:35:18.832Z,4.30
2022-08-17T17:38:15.194Z,4.07
2022-08-17T17:41:12.235Z,4.22
2022-08-17T17:44:12.219Z,4.25
2022-08-17T17:47:05.539Z,4.90
2022-08-17T17:49:55.932Z,4.50
2022-08-17T17:53:10.609Z,4.82
2022-08-17T17:59:24.075Z,4.72
2022-08-17T18:02:51.420Z,5.07
2022-08-17T18:05:54.650Z,4.50
2022-08-17T18:08:59.725Z,4.28
2022-08-17T18:12:14.897Z,4.97
2022-08-17T18:15:29.520Z,5.00
2022-08-17T18:18:31.103Z,5.93
2022-08-17T18:21:27.539Z,5.80
2022-08-17T18:24:30.348Z,5.32
2022-08-17T18:27:40.100Z,5.82
2022-08-17T18:30:30.772Z,5.40
2022-08-17T18:33:26.501Z,4.90
2022-08-17T18:36:32.537Z,6.07
2022-08-17T18:39:27.713Z,5.25
2022-08-17T18:42:26.104Z,6.30
2022-08-17T18:45:33.808Z,6.00
2022-08-17T18:48:48.985Z,5.13
2022-08-17T18:51:43.274Z,5.68
2022-08-17T18:54:36.034Z,5.93
2022-08-17T18:57:41.354Z,6.10
2022-08-17T19:00:38.366Z,6.40
2022-08-17T19:03:29.452Z,5.97
2022-08-17T19:06:31.340Z,6.22
2022-08-17T19:09:32.710Z,6.53
2022-08-17T19:12:41.732Z,5.80
2022-08-17T19:15:36.870Z,6.20
2022-08-17T19:18:36.181Z,5.72
2022-08-17T19:21:38.239Z,6.10
2022-08-17T19:24:31.943Z,6.75
2022-08-17T19:27:41.825Z,6.25
2022-08-17T19:30:36.951Z,7.22
2022-08-17T19:33:31.540Z,6.75
2022-08-17T19:36:22.532Z,6.90
2022-08-17T19:39:37.808Z,7.20
2022-08-17T19:43:02.953Z,7.65
2022-08-17T19:46:18.286Z,8.00
2022-08-17T19:49:32.968Z,8.13
2022-08-17T19:52:38.829Z,7.13
2022-08-17T19:55:47.694Z,7.53
2022-08-17T19:58:44.818Z,7.63
2022-08-17T20:01:45.811Z,7.82
2022-08-17T20:04:42.354Z,7.00
2022-08-17T20:08:17.595Z,7.53
2022-08-17T20:11:17.204Z,7.38
2022-08-17T20:14:14.972Z,7.72
2022-08-17T20:17:06.155Z,7.47
2022-08-17T20:20:19.316Z,6.95
2022-08-17T20:23:28.453Z,7.50
2022-08-17T20:26:43.175Z,7.07
2022-08-17T20:30:12.243Z,8.02
2022-08-17T20:33:05.601Z,8.38
2022-08-17T20:36:11.183Z,8.95
2022-08-17T20:39:01.515Z,7.75
2022-08-17T20:42:15.268Z,8.32
2022-08-17T20:45:20.503Z,7.88
2022-08-17T20:48:36.958Z,7.60
2022-08-17T20:52:00.428Z,7.85
2022-08-17T20:57:48.962Z,8.40
2022-08-17T21:00:42.076Z,7.75
2022-08-17T21:03:47.636Z,8.02
2022-08-17T21:07:19.997Z,7.93
2022-08-17T21:10:16.789Z,9.90
2022-08-17T21:13:13.936Z,8.90
2022-08-17T21:16:22.269Z,8.85
2022-08-17T21:20:08.188Z,8.98
2022-08-17T21:23:08.706Z,9.45
2022-08-17T21:26:50.661Z,9.35
2022-08-17T21:30:06.612Z,9.30
2022-08-17T21:33:24.925Z,8.32
2022-08-17T21:36:23.809Z,8.98
2022-08-17T21:39:19.148Z,9.13
2022-08-17T21:42:13.645Z,9.75
2022-08-17T21:45:28.058Z,9.60
2022-08-17T21:48:27.423Z,9.10
2022-08-17T21:51:21.537Z,10.23
2022-08-17T21:54:40.383Z,9.73
2022-08-17T21:57:33.242Z,9.90
2022-08-17T22:00:29.773Z,9.50
2022-08-17T22:03:26.091Z,9.48
2022-08-17T22:06:38.420Z,10.52
2022-08-17T22:09:35.701Z,9.48
2022-08-17T22:12:25.676Z,9.48
2022-08-17T22:15:17.645Z,9.93
2022-08-17T22:18:21.125Z,9.45
2022-08-17T22:21:11.556Z,9.85
2022-08-17T22:24:16.030Z,9.55
2022-08-17T22:27:11.143Z,8.40
2022-08-17T22:30:28.359Z,9.00
2022-08-17T22:33:36.898Z,9.38
2022-08-17T22:36:30.268Z,8.80
2022-08-17T22:39:22.550Z,8.68
2022-08-17T22:42:17.136Z,8.85
2022-08-17T22:45:08.254Z,9.10
2022-08-17T22:48:01.469Z,7.43
2022-08-17T22:51:03.131Z,6.20
2022-08-17T22:54:31.491Z,6.18
2022-08-17T22:57:42.710Z,6.63
2022-08-17T23:00:37.865Z,5.70
2022-08-17T23:03:30.540Z,5.80
2022-08-17T23:06:20.669Z,5.88
2022-08-17T23:09:10.869Z,5.15
2022-08-17T23:12:05.669Z,5.18
2022-08-17T23:15:00.398Z,5.25
2022-08-17T23:17:50.725Z,5.20
2022-08-17T23:20:41.674Z,5.30
2022-08-17T23:23:31.728Z,5.07
2022-08-17T23:26:22.920Z,4.80
2022-08-17T23:29:13.208Z,4.95
2022-08-17T23:32:05.393Z,4.28
2022-08-17T23:34:56.553Z,4.80
2022-08-17T23:37:46.841Z,4.35
2022-08-17T23:40:39.550Z,4.70
2022-08-17T23:43:31.581Z,5.43
2022-08-17T23:46:24.341Z,4.82
2022-08-17T23:49:14.589Z,5.45
2022-08-17T23:52:09.894Z,5.75
2022-08-17T23:55:00.123Z,6.15
2022-08-17T23:57:50.704Z,6.03
